createdAt,value
2017-11-18T00:00:10.628Z,0
2017-11-18T00:00:51.204Z,0
2017-11-18T00:01:31.811Z,0
2017-11-18T00:02:12.386Z,0
2017-11-18T00:02:53.017Z,0
2017-11-18T00:03:33.601Z,0
2017-11-18T00:04:14.177Z,0
2017-11-18T00:04:54.770Z,0
2017-11-18T00:05:35.334Z,0
2017-11-18T00:06:15.898Z,0
2017-11-18T00:06:56.477Z,0
2017-11-18T00:07:37.105Z,0
2017-11-18T00:08:17.651Z,0
2017-11-18T00:08:58.212Z,0
2017-11-18T00:09:38.779Z,0
2017-11-18T00:10:19.359Z,0
2017-11-18T00:10:59.994Z,0
2017-11-18T00:11:40.553Z,0
2017-11-18T00:12:21.120Z,0
2017-11-18T00:13:01.695Z,0
2017-11-18T00:13:42.285Z,0
2017-11-18T00:14:22.876Z,0
2017-11-18T00:15:03.492Z,0
2017-11-18T00:15:44.064Z,0
2017-11-18T00:16:24.667Z,0
2017-11-18T00:17:05.250Z,0
2017-11-18T00:17:45.837Z,0
2017-11-18T00:18:26.406Z,0
2017-11-18T00:19:06.995Z,0
2017-11-18T00:19:47.543Z,0
2017-11-18T00:20:28.124Z,0
2017-11-18T00:21:08.684Z,0
2017-11-18T00:21:49.304Z,0
2017-11-18T00:22:29.880Z,0
2017-11-18T00:23:10.508Z,0
2017-11-18T00:23:51.074Z,0
2017-11-18T00:24:31.714Z,0
2017-11-18T00:25:12.302Z,0
2017-11-18T00:25:52.900Z,0
2017-11-18T00:26:33.482Z,0
2017-11-18T00:27:14.065Z,0
2017-11-18T00:27:54.653Z,0
2017-11-18T00:28:35.243Z,0
2017-11-18T00:29:15.802Z,0
2017-11-18T00:29:56.412Z,0
2017-11-18T00:30:36.991Z,0
2017-11-18T00:31:17.596Z,0
2017-11-18T00:31:58.180Z,0
2017-11-18T00:32:38.742Z,0
2017-11-18T00:33:19.361Z,0
2017-11-18T00:33:59.976Z,0
2017-11-18T00:34:40.569Z,0
2017-11-18T00:35:21.146Z,0
2017-11-18T00:36:01.714Z,0
2017-11-18T00:36:42.329Z,0
2017-11-18T00:37:22.895Z,0
2017-11-18T00:38:03.464Z,0
2017-11-18T00:38:44.075Z,0
2017-11-18T00:39:24.614Z,0
2017-11-18T00:40:05.179Z,0
2017-11-18T00:40:45.743Z,0
2017-11-18T00:41:26.316Z,0
2017-11-18T00:42:06.881Z,0
2017-11-18T00:42:47.469Z,0
2017-11-18T00:43:28.072Z,0
2017-11-18T00:44:08.664Z,0
2017-11-18T00:44:49.247Z,0
2017-11-18T00:45:29.819Z,0
2017-11-18T00:46:10.400Z,0
2017-11-18T00:46:51.023Z,0
2017-11-18T00:47:31.554Z,0
2017-11-18T00:48:12.139Z,0
2017-11-18T00:48:52.791Z,0
2017-11-18T00:49:33.343Z,0
2017-11-18T00:50:13.924Z,0
2017-11-18T00:50:54.486Z,0
2017-11-18T00:51:35.104Z,0
2017-11-18T00:52:15.668Z,0
2017-11-18T00:52:56.237Z,0
2017-11-18T00:53:36.813Z,0
2017-11-18T00:54:17.380Z,0
2017-11-18T00:54:57.974Z,0
2017-11-18T00:55:38.500Z,0
2017-11-18T00:56:19.149Z,0
2017-11-18T00:56:59.733Z,0
2017-11-18T00:57:40.306Z,0
2017-11-18T00:58:20.906Z,0
2017-11-18T00:59:01.501Z,0
2017-11-18T00:59:42.090Z,0
2017-11-18T01:00:22.662Z,0
2017-11-18T01:01:03.221Z,0
2017-11-18T01:01:43.778Z,0
2017-11-18T01:02:24.350Z,0
2017-11-18T01:03:04.910Z,0
2017-11-18T01:03:45.475Z,0
2017-11-18T01:04:26.052Z,0
2017-11-18T01:05:06.615Z,0
2017-11-18T01:05:47.180Z,0
2017-11-18T01:06:27.751Z,0
2017-11-18T01:07:08.347Z,0
2017-11-18T01:07:48.902Z,0
2017-11-18T01:08:29.474Z,0
2017-11-18T01:09:10.056Z,0
2017-11-18T01:09:50.660Z,0
2017-11-18T01:10:31.271Z,0
2017-11-18T01:11:11.835Z,0
2017-11-18T01:11:52.433Z,0
2017-11-18T01:12:33.005Z,0
2017-11-18T01:13:13.583Z,0
2017-11-18T01:13:54.145Z,0
2017-11-18T01:14:34.722Z,0
2017-11-18T01:15:15.292Z,0
2017-11-18T01:15:55.867Z,0
2017-11-18T01:16:36.444Z,0
2017-11-18T01:17:17.020Z,0
2017-11-18T01:17:57.631Z,0
2017-11-18T01:18:38.238Z,0
2017-11-18T01:19:18.810Z,0
2017-11-18T01:19:59.413Z,0
2017-11-18T01:20:39.984Z,0
2017-11-18T01:21:20.559Z,0
2017-11-18T01:22:01.138Z,0
2017-11-18T01:22:41.737Z,0
2017-11-18T01:23:22.297Z,0
2017-11-18T01:24:02.874Z,0
2017-11-18T01:24:43.456Z,0
2017-11-18T01:25:24.036Z,0
2017-11-18T01:26:04.609Z,0
2017-11-18T01:26:45.170Z,0
2017-11-18T01:27:25.795Z,0
2017-11-18T01:28:06.374Z,0
2017-11-18T01:28:46.947Z,0
2017-11-18T01:29:27.524Z,0
2017-11-18T01:30:08.121Z,0
2017-11-18T01:30:48.672Z,0
2017-11-18T01:31:29.259Z,0
2017-11-18T01:32:09.911Z,0
2017-11-18T01:32:50.489Z,0
2017-11-18T01:33:31.058Z,0
2017-11-18T01:34:11.655Z,0
2017-11-18T01:34:52.226Z,0
2017-11-18T01:35:32.790Z,0
2017-11-18T01:36:13.358Z,0
2017-11-18T01:36:53.910Z,0
2017-11-18T01:37:34.488Z,0
2017-11-18T01:38:15.056Z,0
2017-11-18T01:38:55.690Z,0
2017-11-18T01:39:36.268Z,0
2017-11-18T01:40:16.853Z,0
2017-11-18T01:40:57.462Z,0
2017-11-18T01:41:38.074Z,0
2017-11-18T01:42:18.640Z,0
2017-11-18T01:42:59.205Z,0
2017-11-18T01:43:42.440Z,0
2017-11-18T01:44:23.035Z,0
2017-11-18T01:45:03.608Z,0
2017-11-18T01:45:44.255Z,0
2017-11-18T01:46:24.829Z,0
2017-11-18T01:47:05.376Z,0
2017-11-18T01:47:45.946Z,0
2017-11-18T01:48:26.512Z,0
2017-11-18T01:49:07.066Z,0
2017-11-18T01:49:47.642Z,0
2017-11-18T01:50:28.213Z,0
2017-11-18T01:51:08.807Z,0
2017-11-18T01:51:49.387Z,0
2017-11-18T01:52:29.971Z,0
2017-11-18T01:53:10.536Z,0
2017-11-18T01:53:51.111Z,0
2017-11-18T01:54:31.700Z,0
2017-11-18T01:55:12.304Z,0
2017-11-18T01:55:52.864Z,0
2017-11-18T01:56:33.451Z,0
2017-11-18T01:57:14.047Z,0
2017-11-18T01:57:54.616Z,0
2017-11-18T01:58:35.269Z,0
2017-11-18T01:59:15.838Z,0
2017-11-18T01:59:56.405Z,0
2017-11-18T02:00:36.991Z,0
2017-11-18T02:01:17.570Z,0
2017-11-18T02:01:58.160Z,0
2017-11-18T02:02:38.736Z,0
2017-11-18T02:03:19.309Z,0
2017-11-18T02:03:59.897Z,0
2017-11-18T02:04:40.510Z,0
2017-11-18T02:05:21.117Z,0
2017-11-18T02:06:01.690Z,0
2017-11-18T02:06:42.239Z,0
2017-11-18T02:07:22.804Z,0
2017-11-18T02:08:03.356Z,0
2017-11-18T02:08:43.939Z,0
2017-11-18T02:09:24.502Z,0
2017-11-18T02:10:05.083Z,0
2017-11-18T02:10:45.633Z,0
2017-11-18T02:11:26.225Z,0
2017-11-18T02:12:06.811Z,0
2017-11-18T02:12:47.404Z,0
2017-11-18T02:13:27.971Z,0
2017-11-18T02:14:08.543Z,0
2017-11-18T02:14:49.114Z,0
2017-11-18T02:15:29.696Z,0
2017-11-18T02:16:10.258Z,0
2017-11-18T02:16:50.827Z,0
2017-11-18T02:17:31.391Z,0
2017-11-18T02:18:11.944Z,0
2017-11-18T02:18:52.537Z,0
2017-11-18T02:19:33.095Z,0
2017-11-18T02:20:13.663Z,0
2017-11-18T02:20:54.225Z,0
2017-11-18T02:21:34.822Z,0
2017-11-18T02:22:15.393Z,0
2017-11-18T02:22:55.971Z,0
2017-11-18T02:23:36.531Z,0
2017-11-18T02:24:17.112Z,0
2017-11-18T02:24:57.670Z,0
2017-11-18T02:25:38.226Z,0
2017-11-18T02:26:18.785Z,0
2017-11-18T02:26:59.367Z,0
2017-11-18T02:27:39.958Z,0
2017-11-18T02:28:20.533Z,0
2017-11-18T02:29:01.114Z,0
2017-11-18T02:29:41.671Z,0
2017-11-18T02:30:22.234Z,0
2017-11-18T02:31:02.811Z,0
2017-11-18T02:31:43.407Z,0
2017-11-18T02:32:24.001Z,0
2017-11-18T02:33:04.575Z,0
2017-11-18T02:33:45.138Z,0
2017-11-18T02:34:25.706Z,0
2017-11-18T02:35:06.257Z,0
2017-11-18T02:35:46.834Z,0
2017-11-18T02:36:27.383Z,0
2017-11-18T02:37:07.990Z,0
2017-11-18T02:37:48.547Z,0
2017-11-18T02:38:29.115Z,0
2017-11-18T02:39:09.678Z,0
2017-11-18T02:39:50.235Z,0
2017-11-18T02:40:30.796Z,0
2017-11-18T02:41:11.353Z,0
2017-11-18T02:41:51.946Z,0
2017-11-18T02:42:32.519Z,0
2017-11-18T02:43:13.081Z,0
2017-11-18T02:43:53.640Z,0
2017-11-18T02:44:34.206Z,0
2017-11-18T02:45:14.776Z,0
2017-11-18T02:45:55.347Z,0
2017-11-18T02:46:35.927Z,0
2017-11-18T02:47:16.508Z,0
2017-11-18T02:47:57.092Z,0
2017-11-18T02:48:37.657Z,0
2017-11-18T02:49:18.217Z,0
2017-11-18T02:49:58.806Z,0
2017-11-18T02:50:39.341Z,0
2017-11-18T02:51:19.927Z,0
2017-11-18T02:52:00.547Z,0
2017-11-18T02:52:41.108Z,0
2017-11-18T02:53:21.678Z,0
2017-11-18T02:54:02.282Z,0
2017-11-18T02:54:42.846Z,0
2017-11-18T02:55:23.459Z,0
2017-11-18T02:56:04.003Z,0
2017-11-18T02:56:44.589Z,0
2017-11-18T02:57:25.146Z,0
2017-11-18T02:58:05.719Z,0
2017-11-18T02:58:46.282Z,0
2017-11-18T02:59:26.848Z,0
2017-11-18T03:00:07.421Z,0
2017-11-18T03:00:47.987Z,0
2017-11-18T03:01:28.582Z,0
2017-11-18T03:02:09.164Z,0
2017-11-18T03:02:49.722Z,0
2017-11-18T03:03:30.296Z,0
2017-11-18T03:04:10.881Z,0
2017-11-18T03:04:51.477Z,0
2017-11-18T03:05:32.056Z,0
2017-11-18T03:06:12.651Z,0
2017-11-18T03:06:53.221Z,0
2017-11-18T03:07:33.835Z,0
2017-11-18T03:08:14.397Z,0
2017-11-18T03:08:54.994Z,0
2017-11-18T03:09:35.624Z,0
2017-11-18T03:10:16.235Z,0
2017-11-18T03:10:56.791Z,0
2017-11-18T03:11:37.380Z,0
2017-11-18T03:12:17.950Z,0
2017-11-18T03:12:58.524Z,0
2017-11-18T03:13:39.093Z,0
2017-11-18T03:14:19.691Z,0
2017-11-18T03:15:00.262Z,0
2017-11-18T03:15:40.846Z,0
2017-11-18T03:16:21.432Z,0
2017-11-18T03:17:02.004Z,0
2017-11-18T03:17:42.579Z,0
2017-11-18T03:18:23.137Z,0
2017-11-18T03:19:03.708Z,0
2017-11-18T03:19:44.308Z,0
2017-11-18T03:20:24.880Z,0
2017-11-18T03:21:05.467Z,0
2017-11-18T03:21:46.046Z,0
2017-11-18T03:22:26.619Z,0
2017-11-18T03:23:07.184Z,0
2017-11-18T03:23:47.766Z,0
2017-11-18T03:24:28.326Z,0
2017-11-18T03:25:08.909Z,0
2017-11-18T03:25:49.492Z,0
2017-11-18T03:26:30.059Z,0
2017-11-18T03:27:10.622Z,0
2017-11-18T03:27:51.201Z,0
2017-11-18T03:28:31.781Z,0
2017-11-18T03:29:12.349Z,0
2017-11-18T03:29:52.917Z,0
2017-11-18T03:30:33.522Z,0
2017-11-18T03:31:14.082Z,0
2017-11-18T03:31:54.670Z,0
2017-11-18T03:32:35.256Z,0
2017-11-18T03:33:15.818Z,0
2017-11-18T03:33:56.382Z,0
2017-11-18T03:34:36.953Z,0
2017-11-18T03:35:17.508Z,0
2017-11-18T03:35:58.076Z,0
2017-11-18T03:36:38.686Z,0
2017-11-18T03:37:19.257Z,0
2017-11-18T03:37:59.815Z,0
2017-11-18T03:38:40.382Z,0
2017-11-18T03:39:20.947Z,0
2017-11-18T03:40:01.523Z,0
2017-11-18T03:40:42.089Z,0
2017-11-18T03:41:22.666Z,0
2017-11-18T03:42:03.244Z,0
2017-11-18T03:42:43.856Z,0
2017-11-18T03:43:24.455Z,0
2017-11-18T03:44:05.045Z,0
2017-11-18T03:44:45.618Z,0
2017-11-18T03:45:26.187Z,0
2017-11-18T03:46:06.779Z,0
2017-11-18T03:46:47.330Z,0
2017-11-18T03:47:27.900Z,0
2017-11-18T03:48:08.469Z,0
2017-11-18T03:48:49.037Z,0
2017-11-18T03:49:29.672Z,0
2017-11-18T03:50:10.286Z,0
2017-11-18T03:50:50.867Z,0
2017-11-18T03:51:31.432Z,0
2017-11-18T03:52:12.102Z,0
2017-11-18T03:52:52.666Z,0
2017-11-18T03:53:33.272Z,0
2017-11-18T03:54:13.851Z,0
2017-11-18T03:54:54.430Z,0
2017-11-18T03:55:35.009Z,0
2017-11-18T03:56:15.595Z,0
2017-11-18T03:56:56.165Z,0
2017-11-18T03:57:36.727Z,0
2017-11-18T03:58:17.315Z,0
2017-11-18T03:58:57.927Z,0
2017-11-18T03:59:38.488Z,0
2017-11-18T04:00:19.067Z,0
2017-11-18T04:00:59.665Z,0
2017-11-18T04:01:40.228Z,0
2017-11-18T04:02:20.785Z,0
2017-11-18T04:03:01.366Z,0
2017-11-18T04:03:41.931Z,0
2017-11-18T04:04:22.507Z,0
2017-11-18T04:05:03.089Z,0
2017-11-18T04:05:43.682Z,0
2017-11-18T04:06:24.274Z,0
2017-11-18T04:07:04.845Z,0
2017-11-18T04:07:45.418Z,0
2017-11-18T04:08:25.988Z,0
2017-11-18T04:09:06.564Z,0
2017-11-18T04:09:47.134Z,0
2017-11-18T04:10:27.703Z,0
2017-11-18T04:11:08.277Z,0
2017-11-18T04:11:48.846Z,0
2017-11-18T04:12:29.438Z,0
2017-11-18T04:13:10.056Z,0
2017-11-18T04:13:50.620Z,0
2017-11-18T04:14:31.187Z,0
2017-11-18T04:15:11.763Z,0
2017-11-18T04:15:52.330Z,0
2017-11-18T04:16:32.903Z,0
2017-11-18T04:17:13.476Z,0
2017-11-18T04:17:54.027Z,0
2017-11-18T04:18:34.591Z,0
2017-11-18T04:19:15.159Z,0
2017-11-18T04:19:55.737Z,0
2017-11-18T04:20:36.306Z,0
2017-11-18T04:21:16.888Z,0
2017-11-18T04:21:57.475Z,0
2017-11-18T04:22:38.043Z,0
2017-11-18T04:23:18.617Z,0
2017-11-18T04:23:59.221Z,0
2017-11-18T04:24:39.805Z,0
2017-11-18T04:25:20.372Z,0
2017-11-18T04:26:00.940Z,0
2017-11-18T04:26:41.516Z,0
2017-11-18T04:27:22.068Z,0
2017-11-18T04:28:02.665Z,0
2017-11-18T04:28:43.243Z,0
2017-11-18T04:29:23.830Z,0
2017-11-18T04:30:04.401Z,0
2017-11-18T04:30:44.970Z,0
2017-11-18T04:31:25.536Z,0
2017-11-18T04:32:06.103Z,0
2017-11-18T04:32:46.679Z,0
2017-11-18T04:33:27.257Z,0
2017-11-18T04:34:07.820Z,0
2017-11-18T04:34:48.404Z,0
2017-11-18T04:35:28.977Z,0
2017-11-18T04:36:09.597Z,0
2017-11-18T04:36:50.163Z,0
2017-11-18T04:37:30.730Z,0
2017-11-18T04:38:11.292Z,0
2017-11-18T04:38:51.880Z,0
2017-11-18T04:39:32.456Z,0
2017-11-18T04:40:13.041Z,0
2017-11-18T04:40:53.649Z,0
2017-11-18T04:41:34.213Z,0
2017-11-18T04:42:14.811Z,0
2017-11-18T04:42:55.385Z,0
2017-11-18T04:43:35.962Z,0
2017-11-18T04:44:16.547Z,0
2017-11-18T04:44:57.129Z,0
2017-11-18T04:45:37.698Z,0
2017-11-18T04:46:18.248Z,0
2017-11-18T04:46:58.797Z,0
2017-11-18T04:47:39.354Z,0
2017-11-18T04:48:19.939Z,0
2017-11-18T04:49:00.525Z,0
2017-11-18T04:49:41.104Z,0
2017-11-18T04:50:21.671Z,0
2017-11-18T04:51:02.251Z,0
2017-11-18T04:51:42.814Z,0
2017-11-18T04:52:23.410Z,0
2017-11-18T04:53:03.981Z,0
2017-11-18T04:53:44.551Z,0
2017-11-18T04:54:25.160Z,0
2017-11-18T04:55:05.711Z,0
2017-11-18T04:55:46.271Z,0
2017-11-18T04:56:26.834Z,0
2017-11-18T04:57:07.429Z,0
2017-11-18T04:57:47.996Z,0
2017-11-18T04:58:28.671Z,0
2017-11-18T04:59:09.207Z,0
2017-11-18T04:59:49.773Z,0
2017-11-18T05:00:30.331Z,0
2017-11-18T05:01:10.894Z,0
2017-11-18T05:01:51.462Z,0
2017-11-18T05:02:32.036Z,0
2017-11-18T05:03:12.600Z,0
2017-11-18T05:03:53.167Z,0
2017-11-18T05:04:33.733Z,0
2017-11-18T05:05:14.411Z,0
2017-11-18T05:05:54.983Z,0
2017-11-18T05:06:35.558Z,0
2017-11-18T05:07:16.149Z,0
2017-11-18T05:07:56.728Z,0
2017-11-18T05:08:37.293Z,0
2017-11-18T05:09:17.839Z,0
2017-11-18T05:09:58.450Z,0
2017-11-18T05:10:39.072Z,0
2017-11-18T05:11:19.632Z,0
2017-11-18T05:12:00.183Z,0
2017-11-18T05:12:40.744Z,0
2017-11-18T05:13:21.423Z,0
2017-11-18T05:14:01.987Z,0
2017-11-18T05:14:42.571Z,0
2017-11-18T05:15:23.136Z,0
2017-11-18T05:16:03.695Z,0
2017-11-18T05:16:44.263Z,0
2017-11-18T05:17:24.849Z,0
2017-11-18T05:18:05.392Z,0
2017-11-18T05:18:45.959Z,0
2017-11-18T05:19:26.527Z,0
2017-11-18T05:20:07.127Z,0
2017-11-18T05:20:47.695Z,0
2017-11-18T05:21:28.273Z,0
2017-11-18T05:22:08.878Z,0
2017-11-18T05:22:49.486Z,0
2017-11-18T05:23:30.079Z,0
2017-11-18T05:24:10.650Z,0
2017-11-18T05:24:51.257Z,0
2017-11-18T05:25:31.820Z,0
2017-11-18T05:26:12.431Z,0
2017-11-18T05:26:53.012Z,0
2017-11-18T05:27:33.587Z,0
2017-11-18T05:28:14.185Z,0
2017-11-18T05:28:54.786Z,0
2017-11-18T05:29:35.363Z,0
2017-11-18T05:30:15.927Z,0
2017-11-18T05:30:56.488Z,0
2017-11-18T05:31:37.068Z,0
2017-11-18T05:32:17.641Z,0
2017-11-18T05:32:58.208Z,0
2017-11-18T05:33:38.787Z,0
2017-11-18T05:34:19.410Z,0
2017-11-18T05:35:00.004Z,0
2017-11-18T05:35:40.565Z,0
2017-11-18T05:36:21.150Z,0
2017-11-18T05:37:01.736Z,0
2017-11-18T05:37:42.289Z,0
2017-11-18T05:38:22.851Z,0
2017-11-18T05:39:03.414Z,0
2017-11-18T05:39:43.994Z,0
2017-11-18T05:40:24.539Z,0
2017-11-18T05:41:05.133Z,0
2017-11-18T05:41:45.693Z,0
2017-11-18T05:42:26.272Z,0
2017-11-18T05:43:06.837Z,0
2017-11-18T05:43:47.412Z,0
2017-11-18T05:44:27.963Z,0
2017-11-18T05:45:08.512Z,0
2017-11-18T05:45:49.086Z,0
2017-11-18T05:46:29.652Z,0
2017-11-18T05:47:10.229Z,0
2017-11-18T05:47:50.774Z,0
2017-11-18T05:48:31.329Z,0
2017-11-18T05:49:11.923Z,0
2017-11-18T05:49:52.498Z,0
2017-11-18T05:50:33.058Z,0
2017-11-18T05:51:13.603Z,0
2017-11-18T05:51:54.202Z,0
2017-11-18T05:52:34.778Z,0
2017-11-18T05:53:15.313Z,0
2017-11-18T05:53:55.883Z,0
2017-11-18T05:54:36.436Z,0
2017-11-18T05:55:17.033Z,0
2017-11-18T05:55:57.568Z,0
2017-11-18T05:56:38.138Z,0
2017-11-18T05:57:18.711Z,0
2017-11-18T05:57:59.288Z,0
2017-11-18T05:58:39.848Z,0
2017-11-18T05:59:20.411Z,0
2017-11-18T06:00:00.977Z,0
2017-11-18T06:00:41.576Z,0
2017-11-18T06:01:22.126Z,0
2017-11-18T06:02:02.679Z,0
2017-11-18T06:02:43.255Z,0
2017-11-18T06:03:23.829Z,0
2017-11-18T06:04:04.404Z,0
2017-11-18T06:04:44.996Z,0
2017-11-18T06:05:25.565Z,0
2017-11-18T06:06:06.150Z,0
2017-11-18T06:06:46.703Z,0
2017-11-18T06:07:27.310Z,0
2017-11-18T06:08:07.884Z,0
2017-11-18T06:08:48.483Z,0
2017-11-18T06:09:29.053Z,0
2017-11-18T06:10:09.614Z,0
2017-11-18T06:10:50.183Z,0
2017-11-18T06:11:30.755Z,0
2017-11-18T06:12:11.343Z,0
2017-11-18T06:12:51.922Z,0
2017-11-18T06:13:32.482Z,0
2017-11-18T06:14:13.064Z,0
2017-11-18T06:14:53.617Z,0
2017-11-18T06:15:34.207Z,0
2017-11-18T06:16:14.824Z,0
2017-11-18T06:16:55.433Z,0
2017-11-18T06:17:36.061Z,0
2017-11-18T06:18:16.637Z,0
2017-11-18T06:18:57.200Z,0
2017-11-18T06:19:37.775Z,0
2017-11-18T06:20:18.345Z,0
2017-11-18T06:20:58.917Z,0
2017-11-18T06:21:39.483Z,0
2017-11-18T06:22:20.040Z,0
2017-11-18T06:23:00.611Z,0
2017-11-18T06:23:41.203Z,0
2017-11-18T06:24:21.792Z,0
2017-11-18T06:25:02.363Z,0
2017-11-18T06:25:42.959Z,0
2017-11-18T06:26:23.550Z,0
2017-11-18T06:27:04.133Z,0
2017-11-18T06:27:44.692Z,0
2017-11-18T06:28:25.292Z,0
2017-11-18T06:29:05.848Z,0
2017-11-18T06:29:46.427Z,0
2017-11-18T06:30:26.977Z,0
2017-11-18T06:31:07.555Z,0
2017-11-18T06:31:48.113Z,0
2017-11-18T06:32:28.729Z,0
2017-11-18T06:33:09.311Z,0
2017-11-18T06:33:49.862Z,5
2017-11-18T06:34:30.409Z,5
2017-11-18T06:35:10.983Z,5
2017-11-18T06:35:51.544Z,5
2017-11-18T06:36:32.147Z,5
2017-11-18T06:37:12.733Z,5
2017-11-18T06:37:53.321Z,5
2017-11-18T06:38:33.952Z,5
2017-11-18T06:39:14.527Z,5
2017-11-18T06:39:55.113Z,5
2017-11-18T06:40:35.693Z,5
2017-11-18T06:41:16.268Z,5
2017-11-18T06:41:56.869Z,5
2017-11-18T06:42:37.405Z,10
2017-11-18T06:43:17.989Z,10
2017-11-18T06:43:58.610Z,10
2017-11-18T06:44:39.194Z,10
2017-11-18T06:45:19.795Z,10
2017-11-18T06:46:00.395Z,5
2017-11-18T06:46:40.955Z,5
2017-11-18T06:47:21.557Z,10
2017-11-18T06:48:02.121Z,10
2017-11-18T06:48:42.682Z,10
2017-11-18T06:49:23.318Z,10
2017-11-18T06:50:03.846Z,10
2017-11-18T06:50:44.402Z,10
2017-11-18T06:51:24.978Z,10
2017-11-18T06:52:05.522Z,15
2017-11-18T06:52:46.102Z,15
2017-11-18T06:53:26.681Z,15
2017-11-18T06:54:07.236Z,15
2017-11-18T06:54:47.834Z,15
2017-11-18T06:55:28.409Z,15
2017-11-18T06:56:08.968Z,15
2017-11-18T06:56:49.544Z,15
2017-11-18T06:57:30.107Z,20
2017-11-18T06:58:10.682Z,20
2017-11-18T06:58:51.253Z,20
2017-11-18T06:59:31.806Z,20
2017-11-18T07:00:12.382Z,20
2017-11-18T07:00:52.956Z,20
2017-11-18T07:01:33.565Z,20
2017-11-18T07:02:14.106Z,20
2017-11-18T07:02:54.666Z,20
2017-11-18T07:03:35.229Z,20
2017-11-18T07:04:15.818Z,20
2017-11-18T07:04:56.373Z,20
2017-11-18T07:05:36.941Z,20
2017-11-18T07:06:17.512Z,20
2017-11-18T07:06:58.067Z,20
2017-11-18T07:07:38.635Z,20
2017-11-18T07:08:19.231Z,25
2017-11-18T07:08:59.813Z,25
2017-11-18T07:09:40.433Z,25
2017-11-18T07:10:21.020Z,25
2017-11-18T07:11:01.602Z,25
2017-11-18T07:11:42.207Z,25
2017-11-18T07:12:22.805Z,25
2017-11-18T07:13:03.445Z,25
2017-11-18T07:13:44.081Z,25
2017-11-18T07:14:24.628Z,30
2017-11-18T07:15:05.212Z,30
2017-11-18T07:15:45.783Z,30
2017-11-18T07:16:26.334Z,30
2017-11-18T07:17:06.899Z,30
2017-11-18T07:17:47.455Z,30
2017-11-18T07:18:28.011Z,30
2017-11-18T07:19:08.584Z,35
2017-11-18T07:19:49.144Z,35
2017-11-18T07:20:29.748Z,35
2017-11-18T07:21:10.348Z,35
2017-11-18T07:21:50.905Z,40
2017-11-18T07:22:31.455Z,40
2017-11-18T07:23:12.055Z,40
2017-11-18T07:23:52.646Z,40
2017-11-18T07:24:33.220Z,45
2017-11-18T07:25:13.774Z,50
2017-11-18T07:25:54.354Z,50
2017-11-18T07:26:34.972Z,55
2017-11-18T07:27:15.564Z,55
2017-11-18T07:27:56.158Z,55
2017-11-18T07:28:36.716Z,55
2017-11-18T07:29:17.273Z,55
2017-11-18T07:29:57.838Z,55
2017-11-18T07:30:38.403Z,60
2017-11-18T07:31:18.962Z,60
2017-11-18T07:31:59.570Z,60
2017-11-18T07:32:40.124Z,55
2017-11-18T07:33:20.680Z,55
2017-11-18T07:34:01.622Z,50
2017-11-18T07:34:42.197Z,50
2017-11-18T07:35:22.780Z,45
2017-11-18T07:36:03.383Z,45
2017-11-18T07:36:43.944Z,40
2017-11-18T07:37:24.591Z,40
2017-11-18T07:38:05.185Z,35
2017-11-18T07:38:45.753Z,35
2017-11-18T07:39:26.335Z,35
2017-11-18T07:40:06.918Z,35
2017-11-18T07:40:47.473Z,30
2017-11-18T07:41:28.056Z,30
2017-11-18T07:42:08.630Z,30
2017-11-18T07:42:49.210Z,30
2017-11-18T07:43:29.774Z,30
2017-11-18T07:44:10.345Z,30
2017-11-18T07:44:50.928Z,30
2017-11-18T07:45:31.528Z,30
2017-11-18T07:46:12.101Z,35
2017-11-18T07:46:52.676Z,40
2017-11-18T07:47:33.244Z,40
2017-11-18T07:48:13.819Z,40
2017-11-18T07:48:54.383Z,35
2017-11-18T07:49:35.000Z,35
2017-11-18T07:50:15.583Z,30
2017-11-18T07:50:56.210Z,30
2017-11-18T07:51:36.791Z,30
2017-11-18T07:52:17.355Z,25
2017-11-18T07:52:57.938Z,25
2017-11-18T07:53:38.497Z,30
2017-11-18T07:54:19.071Z,30
2017-11-18T07:54:59.634Z,30
2017-11-18T07:55:40.194Z,30
2017-11-18T07:56:20.762Z,30
2017-11-18T07:57:01.341Z,25
2017-11-18T07:57:41.900Z,25
2017-11-18T07:58:22.463Z,25
2017-11-18T07:59:03.025Z,20
2017-11-18T07:59:43.601Z,20
2017-11-18T08:00:24.188Z,20
2017-11-18T08:01:04.741Z,20
2017-11-18T08:01:45.331Z,20
2017-11-18T08:02:25.962Z,20
2017-11-18T08:03:06.532Z,20
2017-11-18T08:03:47.094Z,20
2017-11-18T08:04:27.676Z,25
2017-11-18T08:05:08.246Z,25
2017-11-18T08:05:48.827Z,25
2017-11-18T08:06:29.424Z,25
2017-11-18T08:07:10.013Z,25
2017-11-18T08:07:50.584Z,25
2017-11-18T08:08:31.138Z,25
2017-11-18T08:09:11.711Z,25
2017-11-18T08:09:52.281Z,25
2017-11-18T08:10:32.882Z,25
2017-11-18T08:11:13.481Z,25
2017-11-18T08:11:54.045Z,25
2017-11-18T08:12:34.629Z,20
2017-11-18T08:13:15.312Z,20
2017-11-18T08:13:55.933Z,20
2017-11-18T08:14:36.543Z,20
2017-11-18T08:15:17.230Z,20
2017-11-18T08:15:57.771Z,20
2017-11-18T08:16:42.115Z,20
2017-11-18T08:17:21.583Z,20
2017-11-18T08:18:02.232Z,20
2017-11-18T08:18:43.250Z,20
2017-11-18T08:19:23.846Z,20
2017-11-18T08:20:04.430Z,20
2017-11-18T08:20:45.066Z,20
2017-11-18T08:21:25.682Z,20
2017-11-18T08:22:06.272Z,20
2017-11-18T08:22:47.144Z,20
2017-11-18T08:23:27.813Z,20
2017-11-18T08:24:08.457Z,20
2017-11-18T08:24:49.818Z,20
2017-11-18T08:25:30.421Z,20
2017-11-18T08:26:11.009Z,20
2017-11-18T08:26:51.606Z,20
2017-11-18T08:27:32.225Z,20
2017-11-18T08:28:12.806Z,20
2017-11-18T08:28:53.418Z,20
2017-11-18T08:29:34.049Z,20
2017-11-18T08:30:14.629Z,20
2017-11-18T08:30:55.232Z,25
2017-11-18T08:31:35.853Z,25
2017-11-18T08:32:16.425Z,25
2017-11-18T08:32:57.007Z,25
2017-11-18T08:33:37.579Z,25
2017-11-18T08:34:18.141Z,25
2017-11-18T08:34:58.719Z,30
2017-11-18T08:35:39.302Z,30
2017-11-18T08:36:19.880Z,30
2017-11-18T08:37:00.476Z,30
2017-11-18T08:37:41.067Z,30
2017-11-18T08:38:21.648Z,30
2017-11-18T08:39:02.236Z,25
2017-11-18T08:39:42.848Z,25
2017-11-18T08:40:23.402Z,25
2017-11-18T08:41:03.986Z,25
2017-11-18T08:41:44.541Z,25
2017-11-18T08:42:25.146Z,25
2017-11-18T08:43:05.726Z,25
2017-11-18T08:43:46.318Z,25
2017-11-18T08:44:26.908Z,25
2017-11-18T08:45:07.486Z,25
2017-11-18T08:45:48.069Z,25
2017-11-18T08:46:28.681Z,25
2017-11-18T08:47:09.266Z,25
2017-11-18T08:47:49.844Z,25
2017-11-18T08:48:30.429Z,25
2017-11-18T08:49:11.114Z,25
2017-11-18T08:49:51.677Z,25
2017-11-18T08:50:32.269Z,25
2017-11-18T08:51:12.890Z,25
2017-11-18T08:51:53.458Z,25
2017-11-18T08:52:34.123Z,30
2017-11-18T08:53:14.708Z,30
2017-11-18T08:53:55.308Z,30
2017-11-18T08:54:35.901Z,30
2017-11-18T08:55:16.498Z,30
2017-11-18T08:55:57.084Z,30
2017-11-18T08:56:37.663Z,30
2017-11-18T08:57:18.254Z,30
2017-11-18T08:57:58.862Z,30
2017-11-18T08:58:39.441Z,30
2017-11-18T08:59:20.062Z,30
2017-11-18T09:00:00.651Z,30
2017-11-18T09:00:41.218Z,30
2017-11-18T09:01:21.827Z,30
2017-11-18T09:02:02.407Z,30
2017-11-18T09:02:43.007Z,30
2017-11-18T09:03:23.595Z,30
2017-11-18T09:04:04.166Z,25
2017-11-18T09:04:44.740Z,25
2017-11-18T09:05:25.307Z,25
2017-11-18T09:06:05.879Z,25
2017-11-18T09:06:46.479Z,25
2017-11-18T09:07:27.136Z,25
2017-11-18T09:08:07.691Z,25
2017-11-18T09:08:48.245Z,25
2017-11-18T09:09:28.807Z,25
2017-11-18T09:10:09.389Z,25
2017-11-18T09:10:49.975Z,25
2017-11-18T09:11:30.554Z,25
2017-11-18T09:12:11.134Z,25
2017-11-18T09:12:51.724Z,25
2017-11-18T09:13:32.320Z,25
2017-11-18T09:14:12.956Z,25
2017-11-18T09:14:53.544Z,25
2017-11-18T09:15:34.123Z,25
2017-11-18T09:16:14.698Z,25
2017-11-18T09:16:55.343Z,25
2017-11-18T09:17:35.918Z,25
2017-11-18T09:18:16.508Z,25
2017-11-18T09:18:57.077Z,25
2017-11-18T09:19:37.666Z,25
2017-11-18T09:20:18.250Z,25
2017-11-18T09:20:58.832Z,25
2017-11-18T09:21:39.404Z,25
2017-11-18T09:22:19.966Z,25
2017-11-18T09:23:00.532Z,25
2017-11-18T09:23:41.197Z,25
2017-11-18T09:24:21.851Z,25
2017-11-18T09:25:02.423Z,25
2017-11-18T09:25:43.005Z,25
2017-11-18T09:26:23.569Z,25
2017-11-18T09:27:04.131Z,25
2017-11-18T09:27:44.746Z,25
2017-11-18T09:28:25.321Z,25
2017-11-18T09:29:05.929Z,25
2017-11-18T09:29:46.496Z,25
2017-11-18T09:30:27.098Z,25
2017-11-18T09:31:07.662Z,25
2017-11-18T09:31:48.237Z,25
2017-11-18T09:32:28.820Z,25
2017-11-18T09:33:09.384Z,25
2017-11-18T09:33:49.948Z,20
2017-11-18T09:34:30.515Z,20
2017-11-18T09:35:11.107Z,20
2017-11-18T09:35:51.687Z,20
2017-11-18T09:36:32.251Z,20
2017-11-18T09:37:12.858Z,20
2017-11-18T09:37:53.389Z,20
2017-11-18T09:38:33.991Z,20
2017-11-18T09:39:14.583Z,20
2017-11-18T09:39:55.142Z,20
2017-11-18T09:40:35.709Z,20
2017-11-18T09:41:16.324Z,20
2017-11-18T09:41:56.914Z,20
2017-11-18T09:42:37.507Z,20
2017-11-18T09:43:18.075Z,20
2017-11-18T09:43:58.662Z,20
2017-11-18T09:44:39.269Z,20
2017-11-18T09:45:19.833Z,20
2017-11-18T09:46:00.401Z,20
2017-11-18T09:46:40.958Z,20
2017-11-18T09:47:21.526Z,20
2017-11-18T09:48:02.118Z,20
2017-11-18T09:48:42.676Z,20
2017-11-18T09:49:23.233Z,20
2017-11-18T09:50:03.830Z,20
2017-11-18T09:50:44.410Z,20
2017-11-18T09:51:25.055Z,20
2017-11-18T09:52:05.630Z,20
2017-11-18T09:52:46.179Z,20